PWSweather.com
Personal Weather Stations
Station Observations
K4FB1
Clubhouse Heritage, Lakeland, FL 33812

Clubhouse HeritageLakeland, FL 33812

Lat: 27.969224, Lon: -81.897769

Elevation: 145

Station Type: Davis Vantage Pro2

http://www.ClubhouseWX.com

High Low Average
Temperature 92.2°F33.4°C 72.6°F22.6°C 78.4°F25.8°C
Dew Point 80.3°F26.8°C 71.4°F21.9°C 74.6°F23.7°C
Winds 8.0 mph 12.9 kmh Calm Calm 3.0 mph S4.8 kmh S
Wind Gusts 18.0 mph29.0 kmh -- 7.0 mph11.3 kmh
Humidity 98% 65% 89%
Pressure 30.02 in1016.6 mb 29.93 in1013.5 mb -
Precipitation 0.55 in14.0 mm - -
Hour Temp Dew Point Humidity Winds Wind Gusts Pressure Precip Precip Rate Daily Precip Total
12:00 AM 76.8°F24.9°C 75.3°F24.1°C 95% Calm Calm 1.0 mph1.6 kmh 30.02 in1016.6 mb 0.00 in0.0 mm 0.00 in0.0 mm 0.00 in0.0 mm
12:05 AM 76.7°F24.8°C 75.2°F24.0°C 95% Calm Calm 1.0 mph1.6 kmh 30.01 in1016.3 mb 0.00 in0.0 mm 0.00 in0.0 mm 0.00 in0.0 mm
12:10 AM 76.6°F24.8°C 75.1°F23.9°C 95% Calm Calm 1.0 mph1.6 kmh 30.01 in1016.3 mb 0.00 in0.0 mm 0.00 in0.0 mm 0.00 in0.0 mm
12:15 AM 76.6°F24.8°C 75.4°F24.1°C 96% Calm Calm 1.0 mph1.6 kmh 30.01 in1016.3 mb 0.00 in0.0 mm 0.00 in0.0 mm 0.00 in0.0 mm
12:20 AM 76.4°F24.7°C 75.2°F24.0°C 96% Calm Calm 1.0 mph1.6 kmh 30.01 in1016.3 mb 0.00 in0.0 mm 0.00 in0.0 mm 0.00 in0.0 mm
12:25 AM 76.4°F24.7°C 75.2°F24.0°C 96% Calm Calm 2.0 mph3.2 kmh 30.01 in1016.3 mb 0.00 in0.0 mm 0.00 in0.0 mm 0.00 in0.0 mm
12:30 AM 76.4°F24.7°C 75.2°F24.0°C 96% Calm Calm 2.0 mph3.2 kmh 30.01 in1016.3 mb 0.00 in0.0 mm 0.00 in0.0 mm 0.00 in0.0 mm
12:35 AM 76.3°F24.6°C 75.1°F23.9°C 96% 1.0 mph SSW1.6 kmh SSW 2.0 mph3.2 kmh 30.01 in1016.3 mb 0.00 in0.0 mm 0.00 in0.0 mm 0.00 in0.0 mm
12:40 AM 76.2°F24.6°C 75.0°F23.9°C 96% 1.0 mph SSW1.6 kmh SSW 2.0 mph3.2 kmh 30.01 in1016.3 mb 0.00 in0.0 mm 0.00 in0.0 mm 0.00 in0.0 mm
12:45 AM 76.2°F24.6°C 75.0°F23.9°C 96% 1.0 mph SSW1.6 kmh SSW 2.0 mph3.2 kmh 30.01 in1016.3 mb 0.00 in0.0 mm 0.00 in0.0 mm 0.00 in0.0 mm
12:50 AM 76.2°F24.6°C 75.0°F23.9°C 96% 1.0 mph SSW1.6 kmh SSW 2.0 mph3.2 kmh 30.02 in1016.6 mb 0.00 in0.0 mm 0.00 in0.0 mm 0.00 in0.0 mm
12:55 AM 76.2°F24.6°C 75.0°F23.9°C 96% 1.0 mph SSW1.6 kmh SSW 2.0 mph3.2 kmh 30.02 in1016.6 mb 0.00 in0.0 mm 0.00 in0.0 mm 0.00 in0.0 mm
01:00 AM 76.1°F24.5°C 74.9°F23.8°C 96% 1.0 mph SSW1.6 kmh SSW 3.0 mph4.8 kmh 30.02 in1016.6 mb 0.00 in0.0 mm 0.00 in0.0 mm 0.00 in0.0 mm
01:05 AM 76.1°F24.5°C 74.9°F23.8°C 96% 1.0 mph SSW1.6 kmh SSW 3.0 mph4.8 kmh 30.02 in1016.6 mb 0.00 in0.0 mm 0.00 in0.0 mm 0.00 in0.0 mm
01:10 AM 76.0°F24.4°C 74.8°F23.8°C 96% 1.0 mph SSW1.6 kmh SSW 2.0 mph3.2 kmh 30.02 in1016.6 mb 0.00 in0.0 mm 0.00 in0.0 mm 0.00 in0.0 mm
01:15 AM 76.0°F24.4°C 74.8°F23.8°C 96% Calm Calm 1.0 mph1.6 kmh 30.02 in1016.6 mb 0.00 in0.0 mm 0.00 in0.0 mm 0.00 in0.0 mm
01:20 AM 75.9°F24.4°C 74.7°F23.7°C 96% Calm Calm 1.0 mph1.6 kmh 30.02 in1016.6 mb 0.00 in0.0 mm 0.00 in0.0 mm 0.00 in0.0 mm
01:25 AM 75.8°F24.3°C 74.9°F23.8°C 97% Calm Calm 1.0 mph1.6 kmh 30.01 in1016.3 mb 0.00 in0.0 mm 0.00 in0.0 mm 0.00 in0.0 mm
01:30 AM 75.8°F24.3°C 74.6°F23.7°C 96% Calm Calm 1.0 mph1.6 kmh 30.02 in1016.6 mb 0.00 in0.0 mm 0.00 in0.0 mm 0.00 in0.0 mm
01:35 AM 75.6°F24.2°C 74.4°F23.6°C 96% Calm Calm -- 30.02 in1016.6 mb 0.00 in0.0 mm 0.00 in0.0 mm 0.00 in0.0 mm
01:40 AM 75.5°F24.2°C 74.3°F23.5°C 96% Calm Calm 1.0 mph1.6 kmh 30.01 in1016.3 mb 0.00 in0.0 mm 0.00 in0.0 mm 0.00 in0.0 mm
01:45 AM 75.5°F24.2°C 74.6°F23.7°C 97% Calm Calm 2.0 mph3.2 kmh 30.00 in1015.9 mb 0.00 in0.0 mm 0.00 in0.0 mm 0.00 in0.0 mm
01:50 AM 75.5°F24.2°C 74.6°F23.7°C 97% 1.0 mph SSW1.6 kmh SSW 2.0 mph3.2 kmh 30.00 in1015.9 mb 0.00 in0.0 mm 0.00 in0.0 mm 0.00 in0.0 mm
01:55 AM 75.6°F24.2°C 74.7°F23.7°C 97% 1.0 mph SSW1.6 kmh SSW 3.0 mph4.8 kmh 30.00 in1015.9 mb 0.00 in0.0 mm 0.00 in0.0 mm 0.00 in0.0 mm
02:00 AM 75.6°F24.2°C 74.7°F23.7°C 97% 1.0 mph SSW1.6 kmh SSW 3.0 mph4.8 kmh 30.00 in1015.9 mb 0.00 in0.0 mm 0.00 in0.0 mm 0.00 in0.0 mm
02:05 AM 75.7°F24.3°C 74.8°F23.8°C 97% 1.0 mph SSW1.6 kmh SSW 2.0 mph3.2 kmh 30.00 in1015.9 mb 0.00 in0.0 mm 0.00 in0.0 mm 0.00 in0.0 mm
02:10 AM 75.6°F24.2°C 74.7°F23.7°C 97% 1.0 mph SSW1.6 kmh SSW 2.0 mph3.2 kmh 30.00 in1015.9 mb 0.00 in0.0 mm 0.00 in0.0 mm 0.00 in0.0 mm
02:15 AM 75.7°F24.3°C 74.8°F23.8°C 97% 1.0 mph SSW1.6 kmh SSW 2.0 mph3.2 kmh 30.00 in1015.9 mb 0.00 in0.0 mm 0.00 in0.0 mm 0.00 in0.0 mm
02:20 AM 75.6°F24.2°C 74.7°F23.7°C 97% 1.0 mph SSW1.6 kmh SSW 2.0 mph3.2 kmh 30.00 in1015.9 mb 0.00 in0.0 mm 0.00 in0.0 mm 0.00 in0.0 mm
02:25 AM 75.6°F24.2°C 74.7°F23.7°C 97% 1.0 mph SSW1.6 kmh SSW 2.0 mph3.2 kmh 29.99 in1015.6 mb 0.00 in0.0 mm 0.00 in0.0 mm 0.00 in0.0 mm
02:30 AM 75.6°F24.2°C 74.7°F23.7°C 97% 1.0 mph SSW1.6 kmh SSW 2.0 mph3.2 kmh 29.99 in1015.6 mb 0.00 in0.0 mm 0.00 in0.0 mm 0.00 in0.0 mm
02:35 AM 75.6°F24.2°C 74.7°F23.7°C 97% 1.0 mph SSW1.6 kmh SSW 2.0 mph3.2 kmh 29.99 in1015.6 mb 0.00 in0.0 mm 0.00 in0.0 mm 0.00 in0.0 mm
02:40 AM 75.5°F24.2°C 74.6°F23.7°C 97% 1.0 mph SSW1.6 kmh SSW 2.0 mph3.2 kmh 30.00 in1015.9 mb 0.00 in0.0 mm 0.00 in0.0 mm 0.00 in0.0 mm
02:45 AM 75.5°F24.2°C 74.6°F23.7°C 97% 1.0 mph SSW1.6 kmh SSW 2.0 mph3.2 kmh 29.99 in1015.6 mb 0.00 in0.0 mm 0.00 in0.0 mm 0.00 in0.0 mm
02:50 AM 75.6°F24.2°C 74.7°F23.7°C 97% 1.0 mph SSW1.6 kmh SSW 2.0 mph3.2 kmh 29.99 in1015.6 mb 0.00 in0.0 mm 0.00 in0.0 mm 0.00 in0.0 mm
02:55 AM 75.6°F24.2°C 74.7°F23.7°C 97% 1.0 mph SSW1.6 kmh SSW 2.0 mph3.2 kmh 29.99 in1015.6 mb 0.00 in0.0 mm 0.00 in0.0 mm 0.00 in0.0 mm
03:00 AM 75.5°F24.2°C 74.6°F23.7°C 97% 1.0 mph SSW1.6 kmh SSW 2.0 mph3.2 kmh 29.99 in1015.6 mb 0.00 in0.0 mm 0.00 in0.0 mm 0.00 in0.0 mm
03:05 AM 75.6°F24.2°C 74.7°F23.7°C 97% 1.0 mph SSW1.6 kmh SSW 2.0 mph3.2 kmh 29.99 in1015.6 mb 0.00 in0.0 mm 0.00 in0.0 mm 0.00 in0.0 mm
03:10 AM 75.6°F24.2°C 75.0°F23.9°C 98% 1.0 mph SSW1.6 kmh SSW 2.0 mph3.2 kmh 29.99 in1015.6 mb 0.00 in0.0 mm 0.00 in0.0 mm 0.00 in0.0 mm
03:15 AM 75.6°F24.2°C 74.7°F23.7°C 97% Calm Calm 2.0 mph3.2 kmh 29.99 in1015.6 mb 0.00 in0.0 mm 0.00 in0.0 mm 0.00 in0.0 mm
03:20 AM 75.6°F24.2°C 75.0°F23.9°C 98% Calm Calm 1.0 mph1.6 kmh 30.00 in1015.9 mb 0.00 in0.0 mm 0.00 in0.0 mm 0.00 in0.0 mm
03:25 AM 75.6°F24.2°C 75.0°F23.9°C 98% Calm Calm 1.0 mph1.6 kmh 29.99 in1015.6 mb 0.00 in0.0 mm 0.00 in0.0 mm 0.00 in0.0 mm
03:30 AM 75.6°F24.2°C 75.0°F23.9°C 98% 1.0 mph SSW1.6 kmh SSW 1.0 mph1.6 kmh 29.99 in1015.6 mb 0.00 in0.0 mm 0.00 in0.0 mm 0.00 in0.0 mm
03:35 AM 75.7°F24.3°C 75.1°F23.9°C 98% 1.0 mph SSW1.6 kmh SSW 2.0 mph3.2 kmh 29.99 in1015.6 mb 0.00 in0.0 mm 0.00 in0.0 mm 0.00 in0.0 mm
03:40 AM 75.8°F24.3°C 75.2°F24.0°C 98% 2.0 mph WSW3.2 kmh WSW 16.0 mph25.7 kmh 30.00 in1015.9 mb 0.00 in0.0 mm 0.00 in0.0 mm 0.00 in0.0 mm
03:45 AM 75.5°F24.2°C 73.7°F23.2°C 94% 5.0 mph WSW8.0 kmh WSW 16.0 mph25.7 kmh 30.00 in1015.9 mb 0.00 in0.0 mm 0.00 in0.0 mm 0.00 in0.0 mm
03:50 AM 75.2°F24.0°C 73.4°F23.0°C 94% 7.0 mph W11.3 kmh W 15.0 mph24.1 kmh 30.00 in1015.9 mb 0.01 in0.3 mm 0.12 in3.0 mm 0.01 in0.3 mm
03:55 AM 74.8°F23.8°C 73.0°F22.8°C 94% 6.0 mph W9.7 kmh W 14.0 mph22.5 kmh 30.00 in1015.9 mb 0.03 in0.8 mm 0.24 in6.1 mm 0.03 in0.8 mm
04:00 AM 74.5°F23.6°C 73.0°F22.8°C 95% 4.0 mph W6.4 kmh W 10.0 mph16.1 kmh 30.00 in1015.9 mb 0.04 in1.0 mm 0.01 in0.3 mm 0.04 in1.0 mm
04:05 AM 74.2°F23.4°C 72.7°F22.6°C 95% 4.0 mph W6.4 kmh W 10.0 mph16.1 kmh 30.00 in1015.9 mb 0.04 in1.0 mm 0.00 in0.0 mm 0.04 in1.0 mm
04:10 AM 74.0°F23.3°C 72.5°F22.5°C 95% 3.0 mph WSW4.8 kmh WSW 10.0 mph16.1 kmh 29.99 in1015.6 mb 0.04 in1.0 mm 0.00 in0.0 mm 0.04 in1.0 mm
04:15 AM 73.7°F23.2°C 72.2°F22.3°C 95% 3.0 mph WSW4.8 kmh WSW 7.0 mph11.3 kmh 29.99 in1015.6 mb 0.04 in1.0 mm 0.00 in0.0 mm 0.04 in1.0 mm
04:20 AM 73.5°F23.1°C 72.0°F22.2°C 95% 3.0 mph WSW4.8 kmh WSW 7.0 mph11.3 kmh 29.98 in1015.2 mb 0.04 in1.0 mm 0.00 in0.0 mm 0.04 in1.0 mm
04:25 AM 73.4°F23.0°C 71.9°F22.2°C 95% 3.0 mph WSW4.8 kmh WSW 8.0 mph12.9 kmh 29.98 in1015.2 mb 0.04 in1.0 mm 0.00 in0.0 mm 0.04 in1.0 mm
04:30 AM 73.3°F22.9°C 71.8°F22.1°C 95% 2.0 mph SW3.2 kmh SW 8.0 mph12.9 kmh 29.98 in1015.2 mb 0.04 in1.0 mm 0.00 in0.0 mm 0.04 in1.0 mm
04:35 AM 73.2°F22.9°C 71.7°F22.1°C 95% 3.0 mph SW4.8 kmh SW 7.0 mph11.3 kmh 29.98 in1015.2 mb 0.04 in1.0 mm 0.00 in0.0 mm 0.04 in1.0 mm
04:40 AM 73.1°F22.8°C 71.6°F22.0°C 95% 2.0 mph SSW3.2 kmh SSW 7.0 mph11.3 kmh 29.98 in1015.2 mb 0.04 in1.0 mm 0.00 in0.0 mm 0.04 in1.0 mm
04:45 AM 73.0°F22.8°C 71.5°F21.9°C 95% 2.0 mph SSW3.2 kmh SSW 7.0 mph11.3 kmh 29.98 in1015.2 mb 0.04 in1.0 mm 0.00 in0.0 mm 0.04 in1.0 mm
04:50 AM 73.0°F22.8°C 71.5°F21.9°C 95% 1.0 mph SW1.6 kmh SW 4.0 mph6.4 kmh 29.97 in1014.9 mb 0.03 in0.8 mm 0.00 in0.0 mm 0.04 in1.0 mm
04:55 AM 73.0°F22.8°C 71.8°F22.1°C 96% 2.0 mph SSW3.2 kmh SSW 8.0 mph12.9 kmh 29.97 in1014.9 mb 0.02 in0.5 mm 0.00 in0.0 mm 0.05 in1.3 mm
05:00 AM 73.0°F22.8°C 71.8°F22.1°C 96% 2.0 mph SW3.2 kmh SW 8.0 mph12.9 kmh 29.97 in1014.9 mb 0.01 in0.3 mm 0.00 in0.0 mm 0.05 in1.3 mm
05:05 AM 72.9°F22.7°C 71.7°F22.1°C 96% 2.0 mph SW3.2 kmh SW 6.0 mph9.7 kmh 29.96 in1014.6 mb 0.01 in0.3 mm 0.00 in0.0 mm 0.05 in1.3 mm
05:10 AM 72.8°F22.7°C 71.6°F22.0°C 96% 2.0 mph SW3.2 kmh SW 6.0 mph9.7 kmh 29.96 in1014.6 mb 0.01 in0.3 mm 0.00 in0.0 mm 0.05 in1.3 mm
05:15 AM 72.8°F22.7°C 71.6°F22.0°C 96% 1.0 mph SW1.6 kmh SW 5.0 mph8.0 kmh 29.96 in1014.6 mb 0.01 in0.3 mm 0.00 in0.0 mm 0.05 in1.3 mm
05:20 AM 72.8°F22.7°C 71.6°F22.0°C 96% 1.0 mph SW1.6 kmh SW 5.0 mph8.0 kmh 29.96 in1014.6 mb 0.01 in0.3 mm 0.00 in0.0 mm 0.05 in1.3 mm
05:25 AM 72.7°F22.6°C 71.5°F21.9°C 96% 1.0 mph SW1.6 kmh SW 5.0 mph8.0 kmh 29.96 in1014.6 mb 0.01 in0.3 mm 0.00 in0.0 mm 0.05 in1.3 mm
05:30 AM 72.7°F22.6°C 71.5°F21.9°C 96% 1.0 mph WSW1.6 kmh WSW 5.0 mph8.0 kmh 29.97 in1014.9 mb 0.01 in0.3 mm 0.00 in0.0 mm 0.05 in1.3 mm
05:35 AM 72.7°F22.6°C 71.5°F21.9°C 96% 1.0 mph WSW1.6 kmh WSW 4.0 mph6.4 kmh 29.97 in1014.9 mb 0.01 in0.3 mm 0.00 in0.0 mm 0.05 in1.3 mm
05:40 AM 72.6°F22.6°C 71.4°F21.9°C 96% 1.0 mph WSW1.6 kmh WSW 4.0 mph6.4 kmh 29.97 in1014.9 mb 0.01 in0.3 mm 0.00 in0.0 mm 0.05 in1.3 mm
05:45 AM 72.7°F22.6°C 71.5°F21.9°C 96% 1.0 mph WSW1.6 kmh WSW 4.0 mph6.4 kmh 29.97 in1014.9 mb 0.01 in0.3 mm 0.00 in0.0 mm 0.05 in1.3 mm
05:50 AM 72.7°F22.6°C 71.5°F21.9°C 96% 1.0 mph WSW1.6 kmh WSW 4.0 mph6.4 kmh 29.97 in1014.9 mb 0.00 in0.0 mm 0.00 in0.0 mm 0.05 in1.3 mm
05:55 AM 72.8°F22.7°C 71.6°F22.0°C 96% 1.0 mph WSW1.6 kmh WSW 3.0 mph4.8 kmh 29.97 in1014.9 mb 0.00 in0.0 mm 0.00 in0.0 mm 0.05 in1.3 mm
06:00 AM 72.9°F22.7°C 71.7°F22.1°C 96% 2.0 mph SW3.2 kmh SW 5.0 mph8.0 kmh 29.98 in1015.2 mb 0.00 in0.0 mm 0.00 in0.0 mm 0.05 in1.3 mm
06:05 AM 72.9°F22.7°C 71.7°F22.1°C 96% 2.0 mph S3.2 kmh S 5.0 mph8.0 kmh 29.98 in1015.2 mb 0.00 in0.0 mm 0.00 in0.0 mm 0.05 in1.3 mm
06:10 AM 73.0°F22.8°C 71.8°F22.1°C 96% 2.0 mph S3.2 kmh S 5.0 mph8.0 kmh 29.98 in1015.2 mb 0.00 in0.0 mm 0.00 in0.0 mm 0.05 in1.3 mm
06:15 AM 72.9°F22.7°C 71.7°F22.1°C 96% 2.0 mph S3.2 kmh S 6.0 mph9.7 kmh 29.98 in1015.2 mb 0.00 in0.0 mm 0.00 in0.0 mm 0.05 in1.3 mm
06:20 AM 73.0°F22.8°C 71.8°F22.1°C 96% 3.0 mph S4.8 kmh S 6.0 mph9.7 kmh 29.98 in1015.2 mb 0.00 in0.0 mm 0.00 in0.0 mm 0.05 in1.3 mm
06:25 AM 73.0°F22.8°C 71.8°F22.1°C 96% 3.0 mph S4.8 kmh S 6.0 mph9.7 kmh 29.98 in1015.2 mb 0.00 in0.0 mm 0.00 in0.0 mm 0.05 in1.3 mm
06:30 AM 73.0°F22.8°C 71.8°F22.1°C 96% 2.0 mph S3.2 kmh S 6.0 mph9.7 kmh 29.98 in1015.2 mb 0.00 in0.0 mm 0.00 in0.0 mm 0.05 in1.3 mm
06:35 AM 73.0°F22.8°C 71.8°F22.1°C 96% 2.0 mph S3.2 kmh S 5.0 mph8.0 kmh 29.98 in1015.2 mb 0.00 in0.0 mm 0.00 in0.0 mm 0.05 in1.3 mm
06:40 AM 73.0°F22.8°C 71.8°F22.1°C 96% 1.0 mph S1.6 kmh S 4.0 mph6.4 kmh 29.99 in1015.6 mb 0.00 in0.0 mm 0.00 in0.0 mm 0.05 in1.3 mm
06:45 AM 73.0°F22.8°C 71.8°F22.1°C 96% 2.0 mph S3.2 kmh S 4.0 mph6.4 kmh 29.99 in1015.6 mb 0.00 in0.0 mm 0.00 in0.0 mm 0.05 in1.3 mm
06:50 AM 73.1°F22.8°C 71.9°F22.2°C 96% 3.0 mph S4.8 kmh S 6.0 mph9.7 kmh 29.99 in1015.6 mb 0.00 in0.0 mm 0.00 in0.0 mm 0.05 in1.3 mm
06:55 AM 73.1°F22.8°C 71.9°F22.2°C 96% 3.0 mph S4.8 kmh S 6.0 mph9.7 kmh 30.00 in1015.9 mb 0.00 in0.0 mm 0.00 in0.0 mm 0.05 in1.3 mm
07:00 AM 73.2°F22.9°C 72.0°F22.2°C 96% 3.0 mph S4.8 kmh S 6.0 mph9.7 kmh 30.00 in1015.9 mb 0.00 in0.0 mm 0.00 in0.0 mm 0.05 in1.3 mm
07:05 AM 73.4°F23.0°C 72.2°F22.3°C 96% 3.0 mph S4.8 kmh S 6.0 mph9.7 kmh 30.00 in1015.9 mb 0.00 in0.0 mm 0.00 in0.0 mm 0.05 in1.3 mm
07:10 AM 73.5°F23.1°C 72.3°F22.4°C 96% 3.0 mph S4.8 kmh S 10.0 mph16.1 kmh 30.00 in1015.9 mb 0.00 in0.0 mm 0.00 in0.0 mm 0.05 in1.3 mm
07:15 AM 73.7°F23.2°C 72.5°F22.5°C 96% 3.0 mph S4.8 kmh S 10.0 mph16.1 kmh 30.00 in1015.9 mb 0.00 in0.0 mm 0.00 in0.0 mm 0.05 in1.3 mm
07:20 AM 73.8°F23.2°C 72.6°F22.6°C 96% 3.0 mph S4.8 kmh S 8.0 mph12.9 kmh 30.00 in1015.9 mb 0.00 in0.0 mm 0.00 in0.0 mm 0.05 in1.3 mm
07:25 AM 73.9°F23.3°C 72.7°F22.6°C 96% 4.0 mph S6.4 kmh S 9.0 mph14.5 kmh 30.00 in1015.9 mb 0.00 in0.0 mm 0.00 in0.0 mm 0.05 in1.3 mm
07:30 AM 73.9°F23.3°C 72.7°F22.6°C 96% 4.0 mph S6.4 kmh S 11.0 mph17.7 kmh 30.00 in1015.9 mb 0.01 in0.3 mm 0.12 in3.0 mm 0.06 in1.5 mm
07:35 AM 73.9°F23.3°C 72.7°F22.6°C 96% 4.0 mph S6.4 kmh S 11.0 mph17.7 kmh 30.00 in1015.9 mb 0.01 in0.3 mm 0.00 in0.0 mm 0.06 in1.5 mm
07:40 AM 74.0°F23.3°C 72.8°F22.7°C 96% 3.0 mph S4.8 kmh S 6.0 mph9.7 kmh 30.00 in1015.9 mb 0.01 in0.3 mm 0.00 in0.0 mm 0.06 in1.5 mm
07:45 AM 74.0°F23.3°C 72.8°F22.7°C 96% 3.0 mph S4.8 kmh S 5.0 mph8.0 kmh 30.00 in1015.9 mb 0.02 in0.5 mm 0.12 in3.0 mm 0.07 in1.8 mm
07:50 AM 74.0°F23.3°C 72.8°F22.7°C 96% 2.0 mph S3.2 kmh S 5.0 mph8.0 kmh 30.00 in1015.9 mb 0.02 in0.5 mm 0.00 in0.0 mm 0.07 in1.8 mm
07:55 AM 74.1°F23.4°C 72.9°F22.7°C 96% 3.0 mph S4.8 kmh S 6.0 mph9.7 kmh 30.00 in1015.9 mb 0.02 in0.5 mm 0.00 in0.0 mm 0.07 in1.8 mm
08:00 AM 74.1°F23.4°C 72.9°F22.7°C 96% 4.0 mph S6.4 kmh S 9.0 mph14.5 kmh 30.00 in1015.9 mb 0.02 in0.5 mm 0.00 in0.0 mm 0.07 in1.8 mm
08:05 AM 74.2°F23.4°C 73.0°F22.8°C 96% 4.0 mph S6.4 kmh S 9.0 mph14.5 kmh 30.00 in1015.9 mb 0.02 in0.5 mm 0.00 in0.0 mm 0.07 in1.8 mm
08:10 AM 74.2°F23.4°C 73.3°F22.9°C 97% 4.0 mph S6.4 kmh S 8.0 mph12.9 kmh 30.00 in1015.9 mb 0.02 in0.5 mm 0.00 in0.0 mm 0.07 in1.8 mm
08:15 AM 74.3°F23.5°C 73.4°F23.0°C 97% 3.0 mph S4.8 kmh S 8.0 mph12.9 kmh 30.01 in1016.3 mb 0.02 in0.5 mm 0.00 in0.0 mm 0.07 in1.8 mm
08:20 AM 74.4°F23.6°C 73.5°F23.1°C 97% 3.0 mph S4.8 kmh S 7.0 mph11.3 kmh 30.00 in1015.9 mb 0.02 in0.5 mm 0.00 in0.0 mm 0.07 in1.8 mm
08:25 AM 74.4°F23.6°C 73.5°F23.1°C 97% 3.0 mph S4.8 kmh S 7.0 mph11.3 kmh 30.00 in1015.9 mb 0.02 in0.5 mm 0.00 in0.0 mm 0.07 in1.8 mm
08:30 AM 74.5°F23.6°C 73.6°F23.1°C 97% 3.0 mph S4.8 kmh S 6.0 mph9.7 kmh 30.00 in1015.9 mb 0.01 in0.3 mm 0.00 in0.0 mm 0.07 in1.8 mm
08:35 AM 74.6°F23.7°C 73.7°F23.2°C 97% 3.0 mph S4.8 kmh S 6.0 mph9.7 kmh 30.00 in1015.9 mb 0.01 in0.3 mm 0.00 in0.0 mm 0.07 in1.8 mm
08:40 AM 74.6°F23.7°C 73.7°F23.2°C 97% 4.0 mph S6.4 kmh S 7.0 mph11.3 kmh 30.00 in1015.9 mb 0.01 in0.3 mm 0.00 in0.0 mm 0.07 in1.8 mm
08:45 AM 74.8°F23.8°C 73.6°F23.1°C 96% 4.0 mph S6.4 kmh S 7.0 mph11.3 kmh 30.00 in1015.9 mb 0.00 in0.0 mm 0.00 in0.0 mm 0.07 in1.8 mm
08:50 AM 74.8°F23.8°C 73.6°F23.1°C 96% 3.0 mph S4.8 kmh S 6.0 mph9.7 kmh 30.00 in1015.9 mb 0.00 in0.0 mm 0.00 in0.0 mm 0.07 in1.8 mm
08:55 AM 74.9°F23.8°C 73.7°F23.2°C 96% 3.0 mph S4.8 kmh S 5.0 mph8.0 kmh 30.00 in1015.9 mb 0.00 in0.0 mm 0.00 in0.0 mm 0.07 in1.8 mm
09:00 AM 74.9°F23.8°C 73.7°F23.2°C 96% 2.0 mph SSE3.2 kmh SSE 6.0 mph9.7 kmh 30.00 in1015.9 mb 0.00 in0.0 mm 0.00 in0.0 mm 0.07 in1.8 mm
09:05 AM 75.0°F23.9°C 73.8°F23.2°C 96% 2.0 mph S3.2 kmh S 6.0 mph9.7 kmh 30.00 in1015.9 mb 0.00 in0.0 mm 0.00 in0.0 mm 0.07 in1.8 mm
09:10 AM 75.1°F23.9°C 73.9°F23.3°C 96% 2.0 mph S3.2 kmh S 4.0 mph6.4 kmh 30.01 in1016.3 mb 0.00 in0.0 mm 0.00 in0.0 mm 0.07 in1.8 mm
09:15 AM 75.3°F24.1°C 74.1°F23.4°C 96% 1.0 mph S1.6 kmh S 3.0 mph4.8 kmh 30.01 in1016.3 mb 0.00 in0.0 mm 0.00 in0.0 mm 0.07 in1.8 mm
09:20 AM 75.5°F24.2°C 74.6°F23.7°C 97% 1.0 mph S1.6 kmh S 2.0 mph3.2 kmh 30.01 in1016.3 mb 0.00 in0.0 mm 0.00 in0.0 mm 0.07 in1.8 mm
09:25 AM 75.8°F24.3°C 74.6°F23.7°C 96% 1.0 mph S1.6 kmh S 2.0 mph3.2 kmh 30.01 in1016.3 mb 0.00 in0.0 mm 0.00 in0.0 mm 0.07 in1.8 mm
09:30 AM 76.0°F24.4°C 74.5°F23.6°C 95% 2.0 mph S3.2 kmh S 6.0 mph9.7 kmh 30.01 in1016.3 mb 0.00 in0.0 mm 0.00 in0.0 mm 0.07 in1.8 mm
09:35 AM 76.4°F24.7°C 74.9°F23.8°C 95% 3.0 mph S4.8 kmh S 6.0 mph9.7 kmh 30.01 in1016.3 mb 0.00 in0.0 mm 0.00 in0.0 mm 0.07 in1.8 mm
09:40 AM 76.8°F24.9°C 74.9°F23.8°C 94% 3.0 mph S4.8 kmh S 6.0 mph9.7 kmh 30.01 in1016.3 mb 0.00 in0.0 mm 0.00 in0.0 mm 0.07 in1.8 mm
09:45 AM 77.4°F25.2°C 75.5°F24.2°C 94% 3.0 mph S4.8 kmh S 6.0 mph9.7 kmh 30.01 in1016.3 mb 0.00 in0.0 mm 0.00 in0.0 mm 0.07 in1.8 mm
09:50 AM 78.2°F25.7°C 76.3°F24.6°C 94% 2.0 mph SSW3.2 kmh SSW 4.0 mph6.4 kmh 30.01 in1016.3 mb 0.00 in0.0 mm 0.00 in0.0 mm 0.07 in1.8 mm
09:55 AM 79.1°F26.2°C 76.6°F24.8°C 92% 2.0 mph SSW3.2 kmh SSW 4.0 mph6.4 kmh 30.01 in1016.3 mb 0.00 in0.0 mm 0.00 in0.0 mm 0.07 in1.8 mm
10:00 AM 80.0°F26.7°C 76.5°F24.7°C 89% 3.0 mph S4.8 kmh S 5.0 mph8.0 kmh 30.01 in1016.3 mb 0.00 in0.0 mm 0.00 in0.0 mm 0.07 in1.8 mm
10:05 AM 80.5°F26.9°C 75.9°F24.4°C 86% 3.0 mph S4.8 kmh S 6.0 mph9.7 kmh 30.01 in1016.3 mb 0.00 in0.0 mm 0.00 in0.0 mm 0.07 in1.8 mm
10:10 AM 80.7°F27.1°C 75.1°F23.9°C 83% 3.0 mph S4.8 kmh S 6.0 mph9.7 kmh 30.01 in1016.3 mb 0.00 in0.0 mm 0.00 in0.0 mm 0.07 in1.8 mm
10:15 AM 81.1°F27.3°C 75.4°F24.1°C 83% 3.0 mph S4.8 kmh S 7.0 mph11.3 kmh 30.00 in1015.9 mb 0.00 in0.0 mm 0.00 in0.0 mm 0.07 in1.8 mm
10:20 AM 81.8°F27.7°C 75.4°F24.1°C 81% 4.0 mph S6.4 kmh S 9.0 mph14.5 kmh 30.00 in1015.9 mb 0.00 in0.0 mm 0.00 in0.0 mm 0.07 in1.8 mm
10:25 AM 82.3°F27.9°C 75.1°F23.9°C 79% 4.0 mph S6.4 kmh S 9.0 mph14.5 kmh 30.00 in1015.9 mb 0.00 in0.0 mm 0.00 in0.0 mm 0.07 in1.8 mm
10:30 AM 82.4°F28.0°C 76.0°F24.4°C 81% 5.0 mph S8.0 kmh S 10.0 mph16.1 kmh 30.00 in1015.9 mb 0.00 in0.0 mm 0.00 in0.0 mm 0.07 in1.8 mm
10:35 AM 82.5°F28.1°C 74.2°F23.4°C 76% 4.0 mph S6.4 kmh S 11.0 mph17.7 kmh 30.00 in1015.9 mb 0.00 in0.0 mm 0.00 in0.0 mm 0.07 in1.8 mm
10:40 AM 82.5°F28.1°C 73.8°F23.2°C 75% 5.0 mph S8.0 kmh S 11.0 mph17.7 kmh 30.00 in1015.9 mb 0.00 in0.0 mm 0.00 in0.0 mm 0.07 in1.8 mm
10:45 AM 82.5°F28.1°C 74.2°F23.4°C 76% 5.0 mph S8.0 kmh S 11.0 mph17.7 kmh 30.00 in1015.9 mb 0.00 in0.0 mm 0.00 in0.0 mm 0.07 in1.8 mm
10:50 AM 82.6°F28.1°C 74.3°F23.5°C 76% 5.0 mph S8.0 kmh S 11.0 mph17.7 kmh 30.00 in1015.9 mb 0.00 in0.0 mm 0.00 in0.0 mm 0.07 in1.8 mm
10:55 AM 82.6°F28.1°C 74.3°F23.5°C 76% 4.0 mph S6.4 kmh S 9.0 mph14.5 kmh 30.00 in1015.9 mb 0.00 in0.0 mm 0.00 in0.0 mm 0.07 in1.8 mm
11:00 AM 82.7°F28.2°C 74.8°F23.8°C 77% 4.0 mph S6.4 kmh S 8.0 mph12.9 kmh 30.00 in1015.9 mb 0.00 in0.0 mm 0.00 in0.0 mm 0.07 in1.8 mm
11:05 AM 82.8°F28.2°C 74.8°F23.8°C 77% 4.0 mph S6.4 kmh S 8.0 mph12.9 kmh 30.01 in1016.3 mb 0.00 in0.0 mm 0.00 in0.0 mm 0.07 in1.8 mm
11:10 AM 83.3°F28.5°C 75.7°F24.3°C 78% 4.0 mph S6.4 kmh S 14.0 mph22.5 kmh 30.01 in1016.3 mb 0.00 in0.0 mm 0.00 in0.0 mm 0.07 in1.8 mm
11:15 AM 83.8°F28.8°C 75.4°F24.1°C 76% 5.0 mph S8.0 kmh S 14.0 mph22.5 kmh 30.01 in1016.3 mb 0.00 in0.0 mm 0.00 in0.0 mm 0.07 in1.8 mm
11:20 AM 84.0°F28.9°C 76.4°F24.7°C 78% 5.0 mph S8.0 kmh S 10.0 mph16.1 kmh 30.00 in1015.9 mb 0.00 in0.0 mm 0.00 in0.0 mm 0.07 in1.8 mm
11:25 AM 84.5°F29.2°C 77.3°F25.2°C 79% 3.0 mph S4.8 kmh S 9.0 mph14.5 kmh 30.00 in1015.9 mb 0.00 in0.0 mm 0.00 in0.0 mm 0.07 in1.8 mm
11:30 AM 84.8°F29.3°C 77.2°F25.1°C 78% 3.0 mph SSW4.8 kmh SSW 9.0 mph14.5 kmh 30.00 in1015.9 mb 0.00 in0.0 mm 0.00 in0.0 mm 0.07 in1.8 mm
11:35 AM 85.2°F29.6°C 77.2°F25.1°C 77% 3.0 mph S4.8 kmh S 9.0 mph14.5 kmh 30.00 in1015.9 mb 0.00 in0.0 mm 0.00 in0.0 mm 0.07 in1.8 mm
11:40 AM 85.7°F29.8°C 76.9°F24.9°C 75% 4.0 mph S6.4 kmh S 9.0 mph14.5 kmh 30.00 in1015.9 mb 0.00 in0.0 mm 0.00 in0.0 mm 0.07 in1.8 mm
11:45 AM 85.6°F29.8°C 76.8°F24.9°C 75% 3.0 mph SSW4.8 kmh SSW 8.0 mph12.9 kmh 30.00 in1015.9 mb 0.00 in0.0 mm 0.00 in0.0 mm 0.07 in1.8 mm
11:50 AM 86.0°F30.0°C 77.5°F25.3°C 76% 4.0 mph S6.4 kmh S 10.0 mph16.1 kmh 30.00 in1015.9 mb 0.00 in0.0 mm 0.00 in0.0 mm 0.07 in1.8 mm
11:55 AM 86.6°F30.3°C 77.3°F25.2°C 74% 5.0 mph S8.0 kmh S 10.0 mph16.1 kmh 30.00 in1015.9 mb 0.00 in0.0 mm 0.00 in0.0 mm 0.07 in1.8 mm
12:00 PM 86.9°F30.5°C 77.6°F25.3°C 74% 4.0 mph SSW6.4 kmh SSW 12.0 mph19.3 kmh 30.00 in1015.9 mb 0.00 in0.0 mm 0.00 in0.0 mm 0.07 in1.8 mm
12:05 PM 86.9°F30.5°C 77.6°F25.3°C 74% 5.0 mph S8.0 kmh S 12.0 mph19.3 kmh 30.00 in1015.9 mb 0.00 in0.0 mm 0.00 in0.0 mm 0.07 in1.8 mm
12:10 PM 87.2°F30.7°C 78.3°F25.7°C 75% 5.0 mph SSW8.0 kmh SSW 12.0 mph19.3 kmh 30.00 in1015.9 mb 0.00 in0.0 mm 0.00 in0.0 mm 0.07 in1.8 mm
12:15 PM 87.5°F30.8°C 78.2°F25.7°C 74% 4.0 mph SSW6.4 kmh SSW 11.0 mph17.7 kmh 30.00 in1015.9 mb 0.00 in0.0 mm 0.00 in0.0 mm 0.07 in1.8 mm
12:20 PM 87.8°F31.0°C 78.1°F25.6°C 73% 6.0 mph S9.7 kmh S 15.0 mph24.1 kmh 30.00 in1015.9 mb 0.00 in0.0 mm 0.00 in0.0 mm 0.07 in1.8 mm
12:25 PM 88.1°F31.2°C 78.3°F25.7°C 73% 7.0 mph S11.3 kmh S 15.0 mph24.1 kmh 30.00 in1015.9 mb 0.00 in0.0 mm 0.00 in0.0 mm 0.07 in1.8 mm
12:30 PM 88.2°F31.2°C 78.4°F25.8°C 73% 7.0 mph S11.3 kmh S 15.0 mph24.1 kmh 30.00 in1015.9 mb 0.00 in0.0 mm 0.00 in0.0 mm 0.07 in1.8 mm
12:35 PM 88.8°F31.6°C 79.0°F26.1°C 73% 6.0 mph S9.7 kmh S 15.0 mph24.1 kmh 30.00 in1015.9 mb 0.00 in0.0 mm 0.00 in0.0 mm 0.07 in1.8 mm
12:40 PM 89.4°F31.9°C 79.2°F26.2°C 72% 5.0 mph SSW8.0 kmh SSW 10.0 mph16.1 kmh 30.00 in1015.9 mb 0.00 in0.0 mm 0.00 in0.0 mm 0.07 in1.8 mm
12:45 PM 89.5°F31.9°C 78.4°F25.8°C 70% 6.0 mph SSW9.7 kmh SSW 16.0 mph25.7 kmh 30.00 in1015.9 mb 0.00 in0.0 mm 0.00 in0.0 mm 0.07 in1.8 mm
12:50 PM 89.4°F31.9°C 78.8°F26.0°C 71% 6.0 mph S9.7 kmh S 16.0 mph25.7 kmh 30.00 in1015.9 mb 0.00 in0.0 mm 0.00 in0.0 mm 0.07 in1.8 mm
12:55 PM 89.3°F31.8°C 77.8°F25.4°C 69% 6.0 mph S9.7 kmh S 15.0 mph24.1 kmh 29.99 in1015.6 mb 0.00 in0.0 mm 0.00 in0.0 mm 0.07 in1.8 mm
01:00 PM 89.6°F32.0°C 78.1°F25.6°C 69% 8.0 mph S12.9 kmh S 17.0 mph27.4 kmh 29.99 in1015.6 mb 0.00 in0.0 mm 0.00 in0.0 mm 0.07 in1.8 mm
01:05 PM 89.5°F31.9°C 78.8°F26.0°C 71% 8.0 mph S12.9 kmh S 18.0 mph29.0 kmh 29.99 in1015.6 mb 0.00 in0.0 mm 0.00 in0.0 mm 0.07 in1.8 mm
01:10 PM 89.6°F32.0°C 78.9°F26.1°C 71% 8.0 mph S12.9 kmh S 18.0 mph29.0 kmh 29.98 in1015.2 mb 0.00 in0.0 mm 0.00 in0.0 mm 0.07 in1.8 mm
01:15 PM 89.9°F32.2°C 78.8°F26.0°C 70% 6.0 mph SSW9.7 kmh SSW 15.0 mph24.1 kmh 29.98 in1015.2 mb 0.00 in0.0 mm 0.00 in0.0 mm 0.07 in1.8 mm
01:20 PM 90.0°F32.2°C 79.3°F26.3°C 71% 7.0 mph S11.3 kmh S 16.0 mph25.7 kmh 29.98 in1015.2 mb 0.00 in0.0 mm 0.00 in0.0 mm 0.07 in1.8 mm
01:25 PM 90.4°F32.4°C 78.4°F25.8°C 68% 7.0 mph S11.3 kmh S 16.0 mph25.7 kmh 29.98 in1015.2 mb 0.00 in0.0 mm 0.00 in0.0 mm 0.07 in1.8 mm
01:30 PM 90.5°F32.5°C 78.9°F26.1°C 69% 6.0 mph SSW9.7 kmh SSW 15.0 mph24.1 kmh 29.97 in1014.9 mb 0.00 in0.0 mm 0.00 in0.0 mm 0.07 in1.8 mm
01:35 PM 90.9°F32.7°C 79.8°F26.6°C 70% 6.0 mph SSW9.7 kmh SSW 16.0 mph25.7 kmh 29.97 in1014.9 mb 0.00 in0.0 mm 0.00 in0.0 mm 0.07 in1.8 mm
01:40 PM 91.1°F32.8°C 79.5°F26.4°C 69% 6.0 mph S9.7 kmh S 16.0 mph25.7 kmh 29.97 in1014.9 mb 0.00 in0.0 mm 0.00 in0.0 mm 0.07 in1.8 mm
01:45 PM 91.4°F33.0°C 79.3°F26.3°C 68% 5.0 mph S8.0 kmh S 15.0 mph24.1 kmh 29.96 in1014.6 mb 0.00 in0.0 mm 0.00 in0.0 mm 0.07 in1.8 mm
01:50 PM 91.5°F33.1°C 79.4°F26.3°C 68% 5.0 mph SSW8.0 kmh SSW 14.0 mph22.5 kmh 29.96 in1014.6 mb 0.00 in0.0 mm 0.00 in0.0 mm 0.07 in1.8 mm
01:55 PM 91.4°F33.0°C 78.0°F25.6°C 65% 5.0 mph SW8.0 kmh SW 14.0 mph22.5 kmh 29.96 in1014.6 mb 0.00 in0.0 mm 0.00 in0.0 mm 0.07 in1.8 mm
02:00 PM 91.1°F32.8°C 78.6°F25.9°C 67% 5.0 mph SSW8.0 kmh SSW 12.0 mph19.3 kmh 29.96 in1014.6 mb 0.00 in0.0 mm 0.00 in0.0 mm 0.07 in1.8 mm
02:05 PM 91.0°F32.8°C 79.0°F26.1°C 68% 5.0 mph SSW8.0 kmh SSW 12.0 mph19.3 kmh 29.96 in1014.6 mb 0.00 in0.0 mm 0.00 in0.0 mm 0.07 in1.8 mm
02:10 PM 91.1°F32.8°C 79.1°F26.2°C 68% 4.0 mph SW6.4 kmh SW 11.0 mph17.7 kmh 29.96 in1014.6 mb 0.00 in0.0 mm 0.00 in0.0 mm 0.07 in1.8 mm
02:15 PM 91.2°F32.9°C 78.2°F25.7°C 66% 4.0 mph SSW6.4 kmh SSW 11.0 mph17.7 kmh 29.96 in1014.6 mb 0.00 in0.0 mm 0.00 in0.0 mm 0.07 in1.8 mm
02:20 PM 91.9°F33.3°C 78.9°F26.1°C 66% 4.0 mph S6.4 kmh S 11.0 mph17.7 kmh 29.95 in1014.2 mb 0.00 in0.0 mm 0.00 in0.0 mm 0.07 in1.8 mm
02:25 PM 91.7°F33.2°C 78.7°F25.9°C 66% 4.0 mph S6.4 kmh S 13.0 mph20.9 kmh 29.95 in1014.2 mb 0.00 in0.0 mm 0.00 in0.0 mm 0.07 in1.8 mm
02:30 PM 91.0°F32.8°C 78.5°F25.8°C 67% 6.0 mph SSW9.7 kmh SSW 13.0 mph20.9 kmh 29.95 in1014.2 mb 0.00 in0.0 mm 0.00 in0.0 mm 0.07 in1.8 mm
02:35 PM 91.2°F32.9°C 78.7°F25.9°C 67% 6.0 mph SSW9.7 kmh SSW 13.0 mph20.9 kmh 29.95 in1014.2 mb 0.00 in0.0 mm 0.00 in0.0 mm 0.07 in1.8 mm
02:40 PM 92.0°F33.3°C 79.0°F26.1°C 66% 5.0 mph SSW8.0 kmh SSW 12.0 mph19.3 kmh 29.95 in1014.2 mb 0.00 in0.0 mm 0.00 in0.0 mm 0.07 in1.8 mm
02:45 PM 92.2°F33.4°C 78.7°F25.9°C 65% 5.0 mph SW8.0 kmh SW 12.0 mph19.3 kmh 29.95 in1014.2 mb 0.00 in0.0 mm 0.00 in0.0 mm 0.07 in1.8 mm
02:50 PM 91.9°F33.3°C 78.4°F25.8°C 65% 4.0 mph SW6.4 kmh SW 11.0 mph17.7 kmh 29.94 in1013.9 mb 0.00 in0.0 mm 0.00 in0.0 mm 0.07 in1.8 mm
02:55 PM 90.8°F32.7°C 77.4°F25.2°C 65% 3.0 mph WSW4.8 kmh WSW 11.0 mph17.7 kmh 29.95 in1014.2 mb 0.00 in0.0 mm 0.00 in0.0 mm 0.07 in1.8 mm
03:00 PM 88.9°F31.6°C 77.4°F25.2°C 69% 5.0 mph WSW8.0 kmh WSW 15.0 mph24.1 kmh 29.95 in1014.2 mb 0.00 in0.0 mm 0.00 in0.0 mm 0.07 in1.8 mm
03:05 PM 86.6°F30.3°C 77.3°F25.2°C 74% 6.0 mph WSW9.7 kmh WSW 15.0 mph24.1 kmh 29.94 in1013.9 mb 0.02 in0.5 mm 0.24 in6.1 mm 0.09 in2.3 mm
03:10 PM 84.1°F28.9°C 76.1°F24.5°C 77% 5.0 mph NW8.0 kmh NW 10.0 mph16.1 kmh 29.94 in1013.9 mb 0.02 in0.5 mm 0.00 in0.0 mm 0.09 in2.3 mm
03:15 PM 82.4°F28.0°C 75.6°F24.2°C 80% 5.0 mph NW8.0 kmh NW 9.0 mph14.5 kmh 29.94 in1013.9 mb 0.02 in0.5 mm 0.00 in0.0 mm 0.09 in2.3 mm
03:20 PM 81.5°F27.5°C 76.2°F24.6°C 84% 3.0 mph NNW4.8 kmh NNW 9.0 mph14.5 kmh 29.94 in1013.9 mb 0.02 in0.5 mm 0.00 in0.0 mm 0.09 in2.3 mm
03:25 PM 80.7°F27.1°C 75.4°F24.1°C 84% 3.0 mph NNW4.8 kmh NNW 9.0 mph14.5 kmh 29.94 in1013.9 mb 0.02 in0.5 mm 0.00 in0.0 mm 0.09 in2.3 mm
03:30 PM 80.0°F26.7°C 74.7°F23.7°C 84% 5.0 mph NNW8.0 kmh NNW 11.0 mph17.7 kmh 29.94 in1013.9 mb 0.02 in0.5 mm 0.00 in0.0 mm 0.09 in2.3 mm
03:35 PM 79.6°F26.4°C 75.0°F23.9°C 86% 4.0 mph NW6.4 kmh NW 11.0 mph17.7 kmh 29.94 in1013.9 mb 0.02 in0.5 mm 0.00 in0.0 mm 0.09 in2.3 mm
03:40 PM 79.4°F26.3°C 74.8°F23.8°C 86% 4.0 mph NW6.4 kmh NW 9.0 mph14.5 kmh 29.94 in1013.9 mb 0.02 in0.5 mm 0.00 in0.0 mm 0.09 in2.3 mm
03:45 PM 79.6°F26.4°C 75.4°F24.1°C 87% 3.0 mph WNW4.8 kmh WNW 9.0 mph14.5 kmh 29.94 in1013.9 mb 0.02 in0.5 mm 0.00 in0.0 mm 0.09 in2.3 mm
03:50 PM 80.0°F26.7°C 75.8°F24.3°C 87% 3.0 mph SE4.8 kmh SE 8.0 mph12.9 kmh 29.93 in1013.5 mb 0.02 in0.5 mm 0.00 in0.0 mm 0.09 in2.3 mm
03:55 PM 80.8°F27.1°C 76.9°F24.9°C 88% 4.0 mph SE6.4 kmh SE 8.0 mph12.9 kmh 29.93 in1013.5 mb 0.02 in0.5 mm 0.00 in0.0 mm 0.09 in2.3 mm
04:00 PM 82.0°F27.8°C 77.4°F25.2°C 86% 3.0 mph SE4.8 kmh SE 7.0 mph11.3 kmh 29.93 in1013.5 mb 0.02 in0.5 mm 0.00 in0.0 mm 0.09 in2.3 mm
04:05 PM 82.8°F28.2°C 77.8°F25.4°C 85% 2.0 mph SE3.2 kmh SE 5.0 mph8.0 kmh 29.93 in1013.5 mb 0.00 in0.0 mm 0.00 in0.0 mm 0.09 in2.3 mm
04:10 PM 83.4°F28.6°C 78.1°F25.6°C 84% 2.0 mph SE3.2 kmh SE 4.0 mph6.4 kmh 29.94 in1013.9 mb 0.00 in0.0 mm 0.00 in0.0 mm 0.09 in2.3 mm
04:15 PM 84.6°F29.2°C 80.3°F26.8°C 87% 1.0 mph SE1.6 kmh SE 4.0 mph6.4 kmh 29.94 in1013.9 mb 0.00 in0.0 mm 0.00 in0.0 mm 0.09 in2.3 mm
04:20 PM 86.1°F30.1°C 77.6°F25.3°C 76% 2.0 mph E3.2 kmh E 6.0 mph9.7 kmh 29.94 in1013.9 mb 0.00 in0.0 mm 0.00 in0.0 mm 0.09 in2.3 mm
04:25 PM 87.2°F30.7°C 78.3°F25.7°C 75% 2.0 mph ENE3.2 kmh ENE 6.0 mph9.7 kmh 29.94 in1013.9 mb 0.00 in0.0 mm 0.00 in0.0 mm 0.09 in2.3 mm
04:30 PM 87.7°F30.9°C 78.4°F25.8°C 74% 2.0 mph E3.2 kmh E 5.0 mph8.0 kmh 29.95 in1014.2 mb 0.00 in0.0 mm 0.00 in0.0 mm 0.09 in2.3 mm
04:35 PM 87.5°F30.8°C 79.0°F26.1°C 76% 2.0 mph E3.2 kmh E 6.0 mph9.7 kmh 29.95 in1014.2 mb 0.03 in0.8 mm 0.36 in9.1 mm 0.12 in3.0 mm
04:40 PM 86.9°F30.5°C 80.0°F26.7°C 80% 2.0 mph NW3.2 kmh NW 6.0 mph9.7 kmh 29.94 in1013.9 mb 0.05 in1.3 mm 0.24 in6.1 mm 0.14 in3.6 mm
04:45 PM 86.5°F30.3°C 79.2°F26.2°C 79% 1.0 mph W1.6 kmh W 5.0 mph8.0 kmh 29.94 in1013.9 mb 0.05 in1.3 mm 0.00 in0.0 mm 0.14 in3.6 mm
04:50 PM 86.3°F30.2°C 79.8°F26.6°C 81% 1.0 mph WSW1.6 kmh WSW 4.0 mph6.4 kmh 29.94 in1013.9 mb 0.05 in1.3 mm 0.00 in0.0 mm 0.14 in3.6 mm
04:55 PM 85.9°F29.9°C 79.8°F26.6°C 82% 1.0 mph WSW1.6 kmh WSW 4.0 mph6.4 kmh 29.95 in1014.2 mb 0.05 in1.3 mm 0.00 in0.0 mm 0.14 in3.6 mm
05:00 PM 85.3°F29.6°C 79.9°F26.6°C 84% 2.0 mph WNW3.2 kmh WNW 4.0 mph6.4 kmh 29.94 in1013.9 mb 0.11 in2.8 mm 0.07 in1.8 mm 0.20 in5.1 mm
05:05 PM 83.5°F28.6°C 76.3°F24.6°C 79% 3.0 mph WSW4.8 kmh WSW 15.0 mph24.1 kmh 29.95 in1014.2 mb 0.11 in2.8 mm 0.00 in0.0 mm 0.20 in5.1 mm
05:10 PM 80.0°F26.7°C 72.9°F22.7°C 79% 6.0 mph SSW9.7 kmh SSW 17.0 mph27.4 kmh 29.94 in1013.9 mb 0.17 in4.3 mm 0.72 in18.3 mm 0.26 in6.6 mm
05:15 PM 78.0°F25.6°C 72.1°F22.3°C 82% 7.0 mph S11.3 kmh S 17.0 mph27.4 kmh 29.95 in1014.2 mb 0.17 in4.3 mm 0.00 in0.0 mm 0.26 in6.6 mm
05:20 PM 77.3°F25.2°C 72.4°F22.4°C 85% 6.0 mph SSW9.7 kmh SSW 18.0 mph29.0 kmh 29.96 in1014.6 mb 0.17 in4.3 mm 0.00 in0.0 mm 0.26 in6.6 mm
05:25 PM 76.8°F24.9°C 72.3°F22.4°C 86% 6.0 mph WSW9.7 kmh WSW 18.0 mph29.0 kmh 29.98 in1015.2 mb 0.17 in4.3 mm 0.00 in0.0 mm 0.26 in6.6 mm
05:30 PM 75.7°F24.3°C 71.6°F22.0°C 87% 7.0 mph WSW11.3 kmh WSW 16.0 mph25.7 kmh 29.98 in1015.2 mb 0.40 in10.2 mm 2.76 in70.1 mm 0.49 in12.4 mm
05:35 PM 74.8°F23.8°C 71.7°F22.1°C 90% 6.0 mph WSW9.7 kmh WSW 16.0 mph25.7 kmh 29.96 in1014.6 mb 0.42 in10.7 mm 0.24 in6.1 mm 0.55 in14.0 mm
05:40 PM 74.9°F23.8°C 72.7°F22.6°C 93% 4.0 mph W6.4 kmh W 11.0 mph17.7 kmh 29.96 in1014.6 mb 0.41 in10.4 mm 0.00 in0.0 mm 0.55 in14.0 mm
05:45 PM 75.6°F24.2°C 73.8°F23.2°C 94% 4.0 mph WNW6.4 kmh WNW 11.0 mph17.7 kmh 29.96 in1014.6 mb 0.41 in10.4 mm 0.00 in0.0 mm 0.55 in14.0 mm
05:50 PM 76.7°F24.8°C 74.8°F23.8°C 94% 4.0 mph WNW6.4 kmh WNW 10.0 mph16.1 kmh 29.96 in1014.6 mb 0.41 in10.4 mm 0.00 in0.0 mm 0.55 in14.0 mm
05:55 PM 77.8°F25.4°C 75.3°F24.1°C 92% 4.0 mph WNW6.4 kmh WNW 10.0 mph16.1 kmh 29.96 in1014.6 mb 0.41 in10.4 mm 0.00 in0.0 mm 0.55 in14.0 mm
06:00 PM 77.8°F25.4°C 74.0°F23.3°C 88% 4.0 mph W6.4 kmh W 12.0 mph19.3 kmh 29.96 in1014.6 mb 0.35 in8.9 mm 0.00 in0.0 mm 0.55 in14.0 mm
06:05 PM 77.5°F25.3°C 73.7°F23.2°C 88% 4.0 mph W6.4 kmh W 12.0 mph19.3 kmh 29.96 in1014.6 mb 0.33 in8.4 mm 0.00 in0.0 mm 0.55 in14.0 mm
06:10 PM 77.3°F25.2°C 73.5°F23.1°C 88% 3.0 mph W4.8 kmh W 9.0 mph14.5 kmh 29.96 in1014.6 mb 0.29 in7.4 mm 0.00 in0.0 mm 0.55 in14.0 mm
06:15 PM 77.1°F25.1°C 73.3°F22.9°C 88% 3.0 mph W4.8 kmh W 10.0 mph16.1 kmh 29.96 in1014.6 mb 0.29 in7.4 mm 0.00 in0.0 mm 0.55 in14.0 mm
06:20 PM 77.0°F25.0°C 73.5°F23.1°C 89% 3.0 mph WSW4.8 kmh WSW 10.0 mph16.1 kmh 29.96 in1014.6 mb 0.29 in7.4 mm 0.00 in0.0 mm 0.55 in14.0 mm
06:25 PM 76.9°F24.9°C 73.4°F23.0°C 89% 2.0 mph WSW3.2 kmh WSW 7.0 mph11.3 kmh 29.95 in1014.2 mb 0.29 in7.4 mm 0.00 in0.0 mm 0.55 in14.0 mm
06:30 PM 77.0°F25.0°C 73.5°F23.1°C 89% 2.0 mph W3.2 kmh W 6.0 mph9.7 kmh 29.94 in1013.9 mb 0.06 in1.5 mm 0.00 in0.0 mm 0.55 in14.0 mm
06:35 PM 77.1°F25.1°C 74.3°F23.5°C 91% 1.0 mph W1.6 kmh W 4.0 mph6.4 kmh 29.94 in1013.9 mb 0.00 in0.0 mm 0.00 in0.0 mm 0.55 in14.0 mm
06:40 PM 77.3°F25.2°C 74.1°F23.4°C 90% 1.0 mph W1.6 kmh W 4.0 mph6.4 kmh 29.95 in1014.2 mb 0.00 in0.0 mm 0.00 in0.0 mm 0.55 in14.0 mm
06:45 PM 77.4°F25.2°C 74.2°F23.4°C 90% 1.0 mph W1.6 kmh W 4.0 mph6.4 kmh 29.95 in1014.2 mb 0.00 in0.0 mm 0.00 in0.0 mm 0.55 in14.0 mm
06:50 PM 77.5°F25.3°C 74.3°F23.5°C 90% 2.0 mph NW3.2 kmh NW 5.0 mph8.0 kmh 29.96 in1014.6 mb 0.00 in0.0 mm 0.00 in0.0 mm 0.55 in14.0 mm
06:55 PM 77.6°F25.3°C 74.4°F23.6°C 90% 2.0 mph NW3.2 kmh NW 7.0 mph11.3 kmh 29.97 in1014.9 mb 0.00 in0.0 mm 0.00 in0.0 mm 0.55 in14.0 mm
07:00 PM 77.6°F25.3°C 74.1°F23.4°C 89% 2.0 mph NW3.2 kmh NW 7.0 mph11.3 kmh 29.97 in1014.9 mb 0.00 in0.0 mm 0.00 in0.0 mm 0.55 in14.0 mm
07:05 PM 77.5°F25.3°C 74.0°F23.3°C 89% 2.0 mph WNW3.2 kmh WNW 6.0 mph9.7 kmh 29.98 in1015.2 mb 0.00 in0.0 mm 0.00 in0.0 mm 0.55 in14.0 mm
07:10 PM 77.5°F25.3°C 74.0°F23.3°C 89% 2.0 mph NW3.2 kmh NW 5.0 mph8.0 kmh 29.98 in1015.2 mb 0.00 in0.0 mm 0.00 in0.0 mm 0.55 in14.0 mm
07:15 PM 77.4°F25.2°C 74.2°F23.4°C 90% 1.0 mph NW1.6 kmh NW 4.0 mph6.4 kmh 29.98 in1015.2 mb 0.00 in0.0 mm 0.00 in0.0 mm 0.55 in14.0 mm
07:20 PM 77.3°F25.2°C 74.5°F23.6°C 91% 1.0 mph NW1.6 kmh NW 4.0 mph6.4 kmh 29.98 in1015.2 mb 0.00 in0.0 mm 0.00 in0.0 mm 0.55 in14.0 mm
07:25 PM 77.2°F25.1°C 74.0°F23.3°C 90% 1.0 mph NW1.6 kmh NW 3.0 mph4.8 kmh 29.98 in1015.2 mb 0.00 in0.0 mm 0.00 in0.0 mm 0.55 in14.0 mm
07:30 PM 77.2°F25.1°C 74.0°F23.3°C 90% 1.0 mph NW1.6 kmh NW 3.0 mph4.8 kmh 29.98 in1015.2 mb 0.00 in0.0 mm 0.00 in0.0 mm 0.55 in14.0 mm
07:35 PM 77.1°F25.1°C 73.9°F23.3°C 90% 1.0 mph NW1.6 kmh NW 3.0 mph4.8 kmh 29.98 in1015.2 mb 0.00 in0.0 mm 0.00 in0.0 mm 0.55 in14.0 mm
07:40 PM 77.1°F25.1°C 74.3°F23.5°C 91% 1.0 mph NW1.6 kmh NW 3.0 mph4.8 kmh 29.98 in1015.2 mb 0.00 in0.0 mm 0.00 in0.0 mm 0.55 in14.0 mm
07:45 PM 77.1°F25.1°C 74.6°F23.7°C 92% 1.0 mph NW1.6 kmh NW 3.0 mph4.8 kmh 29.98 in1015.2 mb 0.00 in0.0 mm 0.00 in0.0 mm 0.55 in14.0 mm
07:50 PM 77.2°F25.1°C 75.0°F23.9°C 93% 1.0 mph NW1.6 kmh NW 2.0 mph3.2 kmh 29.98 in1015.2 mb 0.00 in0.0 mm 0.00 in0.0 mm 0.55 in14.0 mm
07:55 PM 77.2°F25.1°C 75.0°F23.9°C 93% Calm Calm 1.0 mph1.6 kmh 29.99 in1015.6 mb 0.00 in0.0 mm 0.00 in0.0 mm 0.55 in14.0 mm
08:00 PM 77.3°F25.2°C 75.1°F23.9°C 93% 1.0 mph NW1.6 kmh NW 2.0 mph3.2 kmh 29.98 in1015.2 mb 0.00 in0.0 mm 0.00 in0.0 mm 0.55 in14.0 mm
08:05 PM 77.2°F25.1°C 75.0°F23.9°C 93% 1.0 mph NW1.6 kmh NW 2.0 mph3.2 kmh 29.99 in1015.6 mb 0.00 in0.0 mm 0.00 in0.0 mm 0.55 in14.0 mm
08:10 PM 77.2°F25.1°C 75.0°F23.9°C 93% 1.0 mph NW1.6 kmh NW 2.0 mph3.2 kmh 29.99 in1015.6 mb 0.00 in0.0 mm 0.00 in0.0 mm 0.55 in14.0 mm
08:15 PM 77.1°F25.1°C 74.9°F23.8°C 93% 1.0 mph NW1.6 kmh NW 3.0 mph4.8 kmh 29.99 in1015.6 mb 0.00 in0.0 mm 0.00 in0.0 mm 0.55 in14.0 mm
08:20 PM 77.0°F25.0°C 74.8°F23.8°C 93% 1.0 mph WNW1.6 kmh WNW 3.0 mph4.8 kmh 29.99 in1015.6 mb 0.00 in0.0 mm 0.00 in0.0 mm 0.55 in14.0 mm
08:25 PM 76.9°F24.9°C 74.7°F23.7°C 93% 2.0 mph S3.2 kmh S 6.0 mph9.7 kmh 29.99 in1015.6 mb 0.00 in0.0 mm 0.00 in0.0 mm 0.55 in14.0 mm
08:30 PM 76.8°F24.9°C 74.6°F23.7°C 93% 3.0 mph SSE4.8 kmh SSE 7.0 mph11.3 kmh 29.99 in1015.6 mb 0.00 in0.0 mm 0.00 in0.0 mm 0.55 in14.0 mm
08:35 PM 76.8°F24.9°C 74.9°F23.8°C 94% 2.0 mph SE3.2 kmh SE 7.0 mph11.3 kmh 29.99 in1015.6 mb 0.00 in0.0 mm 0.00 in0.0 mm 0.55 in14.0 mm
08:40 PM 76.7°F24.8°C 74.8°F23.8°C 94% 1.0 mph SE1.6 kmh SE 3.0 mph4.8 kmh 29.98 in1015.2 mb 0.00 in0.0 mm 0.00 in0.0 mm 0.55 in14.0 mm
08:45 PM 76.5°F24.7°C 74.6°F23.7°C 94% 2.0 mph SE3.2 kmh SE 5.0 mph8.0 kmh 29.99 in1015.6 mb 0.00 in0.0 mm 0.00 in0.0 mm 0.55 in14.0 mm
08:50 PM 76.5°F24.7°C 74.6°F23.7°C 94% 2.0 mph SE3.2 kmh SE 5.0 mph8.0 kmh 29.99 in1015.6 mb 0.00 in0.0 mm 0.00 in0.0 mm 0.55 in14.0 mm
08:55 PM 76.4°F24.7°C 74.5°F23.6°C 94% 2.0 mph SE3.2 kmh SE 7.0 mph11.3 kmh 29.99 in1015.6 mb 0.00 in0.0 mm 0.00 in0.0 mm 0.55 in14.0 mm
09:00 PM 76.2°F24.6°C 74.3°F23.5°C 94% 3.0 mph SE4.8 kmh SE 7.0 mph11.3 kmh 30.00 in1015.9 mb 0.00 in0.0 mm 0.00 in0.0 mm 0.55 in14.0 mm
09:05 PM 76.0°F24.4°C 74.1°F23.4°C 94% 3.0 mph SE4.8 kmh SE 7.0 mph11.3 kmh 29.99 in1015.6 mb 0.00 in0.0 mm 0.00 in0.0 mm 0.55 in14.0 mm
09:10 PM 75.8°F24.3°C 73.9°F23.3°C 94% 2.0 mph ESE3.2 kmh ESE 7.0 mph11.3 kmh 30.00 in1015.9 mb 0.00 in0.0 mm 0.00 in0.0 mm 0.55 in14.0 mm
09:15 PM 75.7°F24.3°C 73.8°F23.2°C 94% 2.0 mph E3.2 kmh E 6.0 mph9.7 kmh 30.00 in1015.9 mb 0.00 in0.0 mm 0.00 in0.0 mm 0.55 in14.0 mm
09:20 PM 75.5°F24.2°C 73.7°F23.2°C 94% 2.0 mph E3.2 kmh E 6.0 mph9.7 kmh 30.00 in1015.9 mb 0.00 in0.0 mm 0.00 in0.0 mm 0.55 in14.0 mm
09:25 PM 75.3°F24.1°C 73.5°F23.1°C 94% 2.0 mph ESE3.2 kmh ESE 7.0 mph11.3 kmh 30.00 in1015.9 mb 0.00 in0.0 mm 0.00 in0.0 mm 0.55 in14.0 mm
09:30 PM 75.2°F24.0°C 73.7°F23.2°C 95% 2.0 mph ESE3.2 kmh ESE 7.0 mph11.3 kmh 30.01 in1016.3 mb 0.00 in0.0 mm 0.00 in0.0 mm 0.55 in14.0 mm
09:35 PM 75.0°F23.9°C 73.2°F22.9°C 94% 2.0 mph ESE3.2 kmh ESE 4.0 mph6.4 kmh 30.01 in1016.3 mb 0.00 in0.0 mm 0.00 in0.0 mm 0.55 in14.0 mm
09:40 PM 74.9°F23.8°C 73.1°F22.8°C 94% 2.0 mph ESE3.2 kmh ESE 6.0 mph9.7 kmh 30.01 in1016.3 mb 0.00 in0.0 mm 0.00 in0.0 mm 0.55 in14.0 mm
09:45 PM 74.8°F23.8°C 73.3°F22.9°C 95% 2.0 mph ESE3.2 kmh ESE 6.0 mph9.7 kmh 30.01 in1016.3 mb 0.00 in0.0 mm 0.00 in0.0 mm 0.55 in14.0 mm
09:50 PM 74.7°F23.7°C 73.2°F22.9°C 95% 2.0 mph ESE3.2 kmh ESE 6.0 mph9.7 kmh 30.02 in1016.6 mb 0.00 in0.0 mm 0.00 in0.0 mm 0.55 in14.0 mm
09:55 PM 74.6°F23.7°C 73.1°F22.8°C 95% 2.0 mph ESE3.2 kmh ESE 6.0 mph9.7 kmh 30.02 in1016.6 mb 0.00 in0.0 mm 0.00 in0.0 mm 0.55 in14.0 mm
10:00 PM 74.6°F23.7°C 73.4°F23.0°C 96% 2.0 mph ESE3.2 kmh ESE 6.0 mph9.7 kmh 30.01 in1016.3 mb 0.00 in0.0 mm 0.00 in0.0 mm 0.55 in14.0 mm
10:05 PM 74.7°F23.7°C 73.5°F23.1°C 96% 2.0 mph ESE3.2 kmh ESE 6.0 mph9.7 kmh 30.02 in1016.6 mb 0.00 in0.0 mm 0.00 in0.0 mm 0.55 in14.0 mm
10:10 PM 74.7°F23.7°C 73.5°F23.1°C 96% 3.0 mph E4.8 kmh E 7.0 mph11.3 kmh 30.02 in1016.6 mb 0.00 in0.0 mm 0.00 in0.0 mm 0.55 in14.0 mm
10:15 PM 74.7°F23.7°C 73.5°F23.1°C 96% 2.0 mph ESE3.2 kmh ESE 7.0 mph11.3 kmh 30.02 in1016.6 mb 0.00 in0.0 mm 0.00 in0.0 mm 0.55 in14.0 mm
10:20 PM 74.7°F23.7°C 73.5°F23.1°C 96% 3.0 mph ESE4.8 kmh ESE 6.0 mph9.7 kmh 30.02 in1016.6 mb 0.00 in0.0 mm 0.00 in0.0 mm 0.55 in14.0 mm
10:25 PM 74.5°F23.6°C 73.0°F22.8°C 95% 3.0 mph SE4.8 kmh SE 7.0 mph11.3 kmh 30.02 in1016.6 mb 0.00 in0.0 mm 0.00 in0.0 mm 0.55 in14.0 mm
10:30 PM 74.6°F23.7°C 73.4°F23.0°C 96% 3.0 mph SE4.8 kmh SE 7.0 mph11.3 kmh 30.01 in1016.3 mb 0.00 in0.0 mm 0.00 in0.0 mm 0.55 in14.0 mm
10:35 PM 74.4°F23.6°C 73.2°F22.9°C 96% 2.0 mph SE3.2 kmh SE 5.0 mph8.0 kmh 30.02 in1016.6 mb 0.00 in0.0 mm 0.00 in0.0 mm 0.55 in14.0 mm
10:40 PM 74.3°F23.5°C 73.1°F22.8°C 96% 2.0 mph SE3.2 kmh SE 4.0 mph6.4 kmh 30.02 in1016.6 mb 0.00 in0.0 mm 0.00 in0.0 mm 0.55 in14.0 mm
10:45 PM 74.3°F23.5°C 73.1°F22.8°C 96% 2.0 mph SE3.2 kmh SE 4.0 mph6.4 kmh 30.02 in1016.6 mb 0.00 in0.0 mm 0.00 in0.0 mm 0.55 in14.0 mm
10:50 PM 74.2°F23.4°C 73.0°F22.8°C 96% 2.0 mph SE3.2 kmh SE 4.0 mph6.4 kmh 30.01 in1016.3 mb 0.00 in0.0 mm 0.00 in0.0 mm 0.55 in14.0 mm
10:55 PM 74.1°F23.4°C 72.9°F22.7°C 96% 2.0 mph SE3.2 kmh SE 4.0 mph6.4 kmh 30.01 in1016.3 mb 0.00 in0.0 mm 0.00 in0.0 mm 0.55 in14.0 mm
11:00 PM 74.1°F23.4°C 72.9°F22.7°C 96% 1.0 mph SE1.6 kmh SE 4.0 mph6.4 kmh 30.01 in1016.3 mb 0.00 in0.0 mm 0.00 in0.0 mm 0.55 in14.0 mm
11:05 PM 74.0°F23.3°C 72.8°F22.7°C 96% 1.0 mph SE1.6 kmh SE 2.0 mph3.2 kmh 30.01 in1016.3 mb 0.00 in0.0 mm 0.00 in0.0 mm 0.55 in14.0 mm
11:10 PM 74.0°F23.3°C 72.8°F22.7°C 96% 1.0 mph SE1.6 kmh SE 2.0 mph3.2 kmh 30.01 in1016.3 mb 0.00 in0.0 mm 0.00 in0.0 mm 0.55 in14.0 mm
11:15 PM 73.9°F23.3°C 72.7°F22.6°C 96% 1.0 mph SE1.6 kmh SE 2.0 mph3.2 kmh 30.01 in1016.3 mb 0.00 in0.0 mm 0.00 in0.0 mm 0.55 in14.0 mm
11:20 PM 73.9°F23.3°C 72.7°F22.6°C 96% 1.0 mph SE1.6 kmh SE 2.0 mph3.2 kmh 30.01 in1016.3 mb 0.00 in0.0 mm 0.00 in0.0 mm 0.55 in14.0 mm
11:25 PM 73.9°F23.3°C 72.7°F22.6°C 96% 1.0 mph SE1.6 kmh SE 3.0 mph4.8 kmh 30.02 in1016.6 mb 0.00 in0.0 mm 0.00 in0.0 mm 0.55 in14.0 mm
11:30 PM 73.9°F23.3°C 72.7°F22.6°C 96% 2.0 mph SE3.2 kmh SE 3.0 mph4.8 kmh 30.01 in1016.3 mb 0.00 in0.0 mm 0.00 in0.0 mm 0.55 in14.0 mm
11:35 PM 73.8°F23.2°C 72.6°F22.6°C 96% 2.0 mph SE3.2 kmh SE 3.0 mph4.8 kmh 30.01 in1016.3 mb 0.00 in0.0 mm 0.00 in0.0 mm 0.55 in14.0 mm
11:40 PM 73.8°F23.2°C 72.9°F22.7°C 97% 2.0 mph SE3.2 kmh SE 4.0 mph6.4 kmh 30.01 in1016.3 mb 0.00 in0.0 mm 0.00 in0.0 mm 0.55 in14.0 mm
11:45 PM 73.8°F23.2°C 72.9°F22.7°C 97% 2.0 mph SE3.2 kmh SE 4.0 mph6.4 kmh 30.01 in1016.3 mb 0.00 in0.0 mm 0.00 in0.0 mm 0.55 in14.0 mm
11:50 PM 73.7°F23.2°C 72.5°F22.5°C 96% 2.0 mph SE3.2 kmh SE 4.0 mph6.4 kmh 30.00 in1015.9 mb 0.00 in0.0 mm 0.00 in0.0 mm 0.55 in14.0 mm
11:55 PM 73.8°F23.2°C 72.6°F22.6°C 96% 2.0 mph SE3.2 kmh SE 4.0 mph6.4 kmh 30.00 in1015.9 mb 0.00 in0.0 mm 0.00 in0.0 mm 0.55 in14.0 mm